createdAt,value
2018-05-31T00:00:19.844Z,67.50
2018-05-31T00:01:19.734Z,90.00
2018-05-31T00:02:19.720Z,90.00
2018-05-31T00:03:19.790Z,67.50
2018-05-31T00:04:19.823Z,112.50
2018-05-31T00:05:19.904Z,45.00
2018-05-31T00:06:19.920Z,45.00
2018-05-31T00:07:19.819Z,45.00
2018-05-31T00:08:19.720Z,45.00
2018-05-31T00:09:19.737Z,45.00
2018-05-31T00:10:19.741Z,67.50
2018-05-31T00:11:19.746Z,112.50
2018-05-31T00:12:19.828Z,135.00
2018-05-31T00:13:20.797Z,135.00
2018-05-31T00:14:19.850Z,135.00
2018-05-31T00:15:19.785Z,90.00
2018-05-31T00:16:19.790Z,90.00
2018-05-31T00:17:19.860Z,90.00
2018-05-31T00:18:19.804Z,90.00
2018-05-31T00:19:19.924Z,45.00
2018-05-31T00:20:19.834Z,67.50
2018-05-31T00:21:19.843Z,67.50
2018-05-31T00:22:19.806Z,67.50
2018-05-31T00:23:19.809Z,112.50
2018-05-31T00:24:19.802Z,45.00
2018-05-31T00:25:19.799Z,45.00
2018-05-31T00:26:19.750Z,45.00
2018-05-31T00:27:19.832Z,45.00
2018-05-31T00:28:19.810Z,45.00
2018-05-31T00:29:19.798Z,22.50
2018-05-31T00:30:19.873Z,22.50
2018-05-31T00:31:19.815Z,22.50
2018-05-31T00:32:19.795Z,45.00
2018-05-31T00:33:19.894Z,67.50
2018-05-31T00:34:19.835Z,90.00
2018-05-31T00:35:19.848Z,90.00
2018-05-31T00:36:19.742Z,67.50
2018-05-31T00:37:19.869Z,67.50
2018-05-31T00:38:19.860Z,45.00
2018-05-31T00:39:19.874Z,45.00
2018-05-31T00:40:19.762Z,22.50
2018-05-31T00:41:19.840Z,0.00
2018-05-31T00:42:19.880Z,22.50
2018-05-31T00:43:19.785Z,22.50
2018-05-31T00:44:19.880Z,22.50
2018-05-31T00:45:19.770Z,0.00
2018-05-31T00:46:19.843Z,45.00
2018-05-31T00:47:19.815Z,22.50
2018-05-31T00:48:19.876Z,22.50
2018-05-31T00:49:19.847Z,0.00
2018-05-31T00:50:19.767Z,180.00
2018-05-31T00:51:19.892Z,247.50
2018-05-31T00:52:19.880Z,45.00
2018-05-31T00:53:19.848Z,22.50
2018-05-31T00:54:19.831Z,22.50
2018-05-31T00:55:19.849Z,22.50
2018-05-31T00:56:19.852Z,45.00
2018-05-31T00:57:19.815Z,67.50
2018-05-31T00:58:19.796Z,67.50
2018-05-31T00:59:19.890Z,67.50
2018-05-31T01:00:19.757Z,67.50
2018-05-31T01:01:19.796Z,67.50
2018-05-31T01:02:19.893Z,67.50
2018-05-31T01:03:19.782Z,45.00
2018-05-31T01:04:19.885Z,45.00
2018-05-31T01:05:19.861Z,45.00
2018-05-31T01:06:19.797Z,22.50
2018-05-31T01:07:19.880Z,22.50
2018-05-31T01:08:19.821Z,45.00
2018-05-31T01:09:19.801Z,45.00
2018-05-31T01:10:19.881Z,45.00
2018-05-31T01:11:19.843Z,45.00
2018-05-31T01:12:19.890Z,45.00
2018-05-31T01:13:19.883Z,45.00
2018-05-31T01:14:19.784Z,45.00
2018-05-31T01:15:19.903Z,45.00
2018-05-31T01:16:19.870Z,45.00
2018-05-31T01:17:19.790Z,22.50
2018-05-31T01:18:19.849Z,22.50
2018-05-31T01:19:19.824Z,22.50
2018-05-31T01:20:19.831Z,90.00
2018-05-31T01:21:19.770Z,112.50
2018-05-31T01:22:19.774Z,112.50
2018-05-31T01:23:19.808Z,112.50
2018-05-31T01:24:19.852Z,112.50
2018-05-31T01:25:19.811Z,90.00
2018-05-31T01:26:19.846Z,90.00
2018-05-31T01:27:19.869Z,90.00
2018-05-31T01:28:19.849Z,67.50
2018-05-31T01:29:19.880Z,45.00
2018-05-31T01:30:19.904Z,45.00
2018-05-31T01:31:19.794Z,45.00
2018-05-31T01:32:19.915Z,67.50
2018-05-31T01:33:19.904Z,67.50
2018-05-31T01:34:19.877Z,45.00
2018-05-31T01:35:19.895Z,45.00
2018-05-31T01:36:19.908Z,45.00
2018-05-31T01:37:19.902Z,45.00
2018-05-31T01:38:19.914Z,45.00
2018-05-31T01:39:19.859Z,45.00
2018-05-31T01:40:19.754Z,202.50
2018-05-31T01:41:19.775Z,180.00
2018-05-31T01:42:19.777Z,90.00
2018-05-31T01:43:19.783Z,67.50
2018-05-31T01:44:19.875Z,22.50
2018-05-31T01:45:19.781Z,270.00
2018-05-31T01:46:19.860Z,315.00
2018-05-31T01:47:19.826Z,315.00
2018-05-31T01:48:19.868Z,315.00
2018-05-31T01:49:19.778Z,337.50
2018-05-31T01:50:19.753Z,337.50
2018-05-31T01:51:19.703Z,292.50
2018-05-31T01:52:19.729Z,202.50
2018-05-31T01:53:19.765Z,180.00
2018-05-31T01:54:19.758Z,292.50
2018-05-31T01:55:19.710Z,270.00
2018-05-31T01:56:19.715Z,337.50
2018-05-31T01:57:19.740Z,180.00
2018-05-31T01:58:19.713Z,22.50
2018-05-31T01:59:19.732Z,22.50
2018-05-31T02:00:19.975Z,45.00
2018-05-31T02:01:19.888Z,67.50
2018-05-31T02:02:19.832Z,67.50
2018-05-31T02:03:19.892Z,67.50
2018-05-31T02:04:19.815Z,90.00
2018-05-31T02:05:19.815Z,90.00
2018-05-31T02:06:19.896Z,90.00
2018-05-31T02:07:19.821Z,45.00
2018-05-31T02:08:19.893Z,22.50
2018-05-31T02:09:19.819Z,22.50
2018-05-31T02:10:19.856Z,67.50
2018-05-31T02:11:19.801Z,45.00
2018-05-31T02:12:19.891Z,67.50
2018-05-31T02:13:19.836Z,90.00
2018-05-31T02:14:19.797Z,112.50
2018-05-31T02:15:19.886Z,67.50
2018-05-31T02:16:19.897Z,45.00
2018-05-31T02:17:19.808Z,45.00
2018-05-31T02:18:19.806Z,22.50
2018-05-31T02:19:19.803Z,22.50
2018-05-31T02:20:19.842Z,22.50
2018-05-31T02:21:19.920Z,180.00
2018-05-31T02:22:19.910Z,135.00
2018-05-31T02:23:19.968Z,112.50
2018-05-31T02:24:19.912Z,112.50
2018-05-31T02:25:19.916Z,22.50
2018-05-31T02:26:19.916Z,22.50
2018-05-31T02:27:19.919Z,45.00
2018-05-31T02:28:19.844Z,67.50
2018-05-31T02:29:19.922Z,22.50
2018-05-31T02:30:19.847Z,22.50
2018-05-31T02:31:19.892Z,22.50
2018-05-31T02:32:19.915Z,22.50
2018-05-31T02:33:19.947Z,22.50
2018-05-31T02:34:19.919Z,22.50
2018-05-31T02:35:19.893Z,315.00
2018-05-31T02:36:19.824Z,45.00
2018-05-31T02:37:19.919Z,180.00
2018-05-31T02:38:19.884Z,180.00
2018-05-31T02:39:19.951Z,112.50
2018-05-31T02:40:19.947Z,45.00
2018-05-31T02:41:19.922Z,22.50
2018-05-31T02:42:19.886Z,157.50
2018-05-31T02:43:19.881Z,157.50
2018-05-31T02:44:19.930Z,157.50
2018-05-31T02:45:19.903Z,135.00
2018-05-31T02:46:19.830Z,22.50
2018-05-31T02:47:19.886Z,45.00
2018-05-31T02:48:19.893Z,22.50
2018-05-31T02:49:19.944Z,22.50
2018-05-31T02:50:19.912Z,22.50
2018-05-31T02:51:19.813Z,135.00
2018-05-31T02:52:19.926Z,157.50
2018-05-31T02:53:19.934Z,135.00
2018-05-31T02:54:19.859Z,112.50
2018-05-31T02:55:19.861Z,67.50
2018-05-31T02:56:19.865Z,67.50
2018-05-31T02:57:19.864Z,45.00
2018-05-31T02:58:19.940Z,45.00
2018-05-31T02:59:19.938Z,45.00
2018-05-31T03:00:19.949Z,67.50
2018-05-31T03:01:19.896Z,135.00
2018-05-31T03:02:19.917Z,112.50
2018-05-31T03:03:19.855Z,67.50
2018-05-31T03:04:19.874Z,45.00
2018-05-31T03:05:19.943Z,22.50
2018-05-31T03:06:19.899Z,180.00
2018-05-31T03:07:19.877Z,22.50
2018-05-31T03:08:19.863Z,22.50
2018-05-31T03:09:19.939Z,22.50
2018-05-31T03:10:19.923Z,22.50
2018-05-31T03:11:19.849Z,22.50
2018-05-31T03:12:19.841Z,22.50
2018-05-31T03:13:19.904Z,22.50
2018-05-31T03:14:19.899Z,22.50
2018-05-31T03:15:19.848Z,45.00
2018-05-31T03:16:19.899Z,45.00
2018-05-31T03:17:19.938Z,45.00
2018-05-31T03:18:19.820Z,22.50
2018-05-31T03:19:19.882Z,45.00
2018-05-31T03:20:19.835Z,45.00
2018-05-31T03:21:19.882Z,45.00
2018-05-31T03:22:19.954Z,22.50
2018-05-31T03:23:19.884Z,22.50
2018-05-31T03:24:19.954Z,135.00
2018-05-31T03:25:19.882Z,22.50
2018-05-31T03:26:19.959Z,22.50
2018-05-31T03:27:19.895Z,22.50
2018-05-31T03:28:19.887Z,22.50
2018-05-31T03:29:19.958Z,22.50
2018-05-31T03:30:19.960Z,22.50
2018-05-31T03:31:19.913Z,22.50
2018-05-31T03:32:19.922Z,45.00
2018-05-31T03:33:19.865Z,45.00
2018-05-31T03:34:19.881Z,67.50
2018-05-31T03:35:19.874Z,45.00
2018-05-31T03:36:19.960Z,45.00
2018-05-31T03:37:19.956Z,45.00
2018-05-31T03:38:19.992Z,45.00
2018-05-31T03:39:19.976Z,45.00
2018-05-31T03:40:19.959Z,45.00
2018-05-31T03:41:19.896Z,45.00
2018-05-31T03:42:19.927Z,45.00
2018-05-31T03:43:19.964Z,45.00
2018-05-31T03:44:19.967Z,45.00
2018-05-31T03:45:19.966Z,45.00
2018-05-31T03:46:19.922Z,67.50
2018-05-31T03:47:19.911Z,45.00
2018-05-31T03:48:19.903Z,45.00
2018-05-31T03:49:19.901Z,45.00
2018-05-31T03:50:19.902Z,45.00
2018-05-31T03:51:19.947Z,45.00
2018-05-31T03:52:19.998Z,45.00
2018-05-31T03:53:19.934Z,45.00
2018-05-31T03:54:19.945Z,45.00
2018-05-31T03:55:19.940Z,45.00
2018-05-31T03:56:19.954Z,180.00
2018-05-31T03:57:19.874Z,157.50
2018-05-31T03:58:20.004Z,180.00
2018-05-31T03:59:19.893Z,180.00
2018-05-31T04:00:19.941Z,135.00
2018-05-31T04:01:19.974Z,67.50
2018-05-31T04:02:19.910Z,45.00
2018-05-31T04:03:19.978Z,45.00
2018-05-31T04:04:19.907Z,22.50
2018-05-31T04:05:19.911Z,90.00
2018-05-31T04:06:19.941Z,180.00
2018-05-31T04:07:19.909Z,202.50
2018-05-31T04:08:19.984Z,180.00
2018-05-31T04:09:19.909Z,180.00
2018-05-31T04:10:19.984Z,90.00
2018-05-31T04:11:19.996Z,45.00
2018-05-31T04:12:19.923Z,45.00
2018-05-31T04:13:19.952Z,45.00
2018-05-31T04:14:20.013Z,22.50
2018-05-31T04:15:20.009Z,22.50
2018-05-31T04:16:19.910Z,45.00
2018-05-31T04:17:20.021Z,112.50
2018-05-31T04:18:19.968Z,22.50
2018-05-31T04:19:19.910Z,45.00
2018-05-31T04:20:19.953Z,45.00
2018-05-31T04:21:19.951Z,22.50
2018-05-31T04:22:20.030Z,90.00
2018-05-31T04:23:20.024Z,157.50
2018-05-31T04:24:19.995Z,157.50
2018-05-31T04:25:19.954Z,90.00
2018-05-31T04:26:19.956Z,67.50
2018-05-31T04:27:20.007Z,67.50
2018-05-31T04:28:19.911Z,67.50
2018-05-31T04:29:20.019Z,90.00
2018-05-31T04:30:20.072Z,180.00
2018-05-31T04:31:19.985Z,157.50
2018-05-31T04:32:19.867Z,45.00
2018-05-31T04:33:19.930Z,67.50
2018-05-31T04:34:19.986Z,112.50
2018-05-31T04:35:19.957Z,67.50
2018-05-31T04:36:19.990Z,67.50
2018-05-31T04:37:19.929Z,135.00
2018-05-31T04:38:19.978Z,157.50
2018-05-31T04:39:19.975Z,67.50
2018-05-31T04:40:19.981Z,22.50
2018-05-31T04:41:20.002Z,45.00
2018-05-31T04:42:19.936Z,22.50
2018-05-31T04:43:20.008Z,45.00
2018-05-31T04:44:20.005Z,67.50
2018-05-31T04:45:20.006Z,90.00
2018-05-31T04:46:19.895Z,112.50
2018-05-31T04:47:20.006Z,202.50
2018-05-31T04:48:19.964Z,337.50
2018-05-31T04:49:20.011Z,157.50
2018-05-31T04:50:19.943Z,315.00
2018-05-31T04:51:19.942Z,45.00
2018-05-31T04:52:20.013Z,135.00
2018-05-31T04:53:20.028Z,22.50
2018-05-31T04:54:19.945Z,22.50
2018-05-31T04:55:20.014Z,0.00
2018-05-31T04:56:19.944Z,67.50
2018-05-31T04:57:19.947Z,22.50
2018-05-31T04:58:20.013Z,45.00
2018-05-31T04:59:20.012Z,112.50
2018-05-31T05:00:19.948Z,90.00
2018-05-31T05:01:19.918Z,112.50
2018-05-31T05:02:20.017Z,45.00
2018-05-31T05:03:19.982Z,135.00
2018-05-31T05:04:19.937Z,90.00
2018-05-31T05:05:20.043Z,157.50
2018-05-31T05:06:19.994Z,157.50
2018-05-31T05:07:19.987Z,292.50
2018-05-31T05:08:20.054Z,225.00
2018-05-31T05:09:19.940Z,202.50
2018-05-31T05:10:19.998Z,157.50
2018-05-31T05:11:20.054Z,247.50
2018-05-31T05:12:20.058Z,202.50
2018-05-31T05:13:20.025Z,180.00
2018-05-31T05:14:20.052Z,157.50
2018-05-31T05:15:19.985Z,67.50
2018-05-31T05:16:19.991Z,22.50
2018-05-31T05:17:19.929Z,225.00
2018-05-31T05:18:20.050Z,292.50
2018-05-31T05:19:20.056Z,180.00
2018-05-31T05:20:19.951Z,202.50
2018-05-31T05:21:19.965Z,157.50
2018-05-31T05:22:20.025Z,202.50
2018-05-31T05:23:19.948Z,225.00
2018-05-31T05:24:20.073Z,270.00
2018-05-31T05:25:19.965Z,22.50
2018-05-31T05:26:20.056Z,22.50
2018-05-31T05:27:20.057Z,135.00
2018-05-31T05:28:19.973Z,45.00
2018-05-31T05:29:19.989Z,135.00
2018-05-31T05:30:19.929Z,247.50
2018-05-31T05:31:19.966Z,135.00
2018-05-31T05:32:20.030Z,45.00
2018-05-31T05:33:19.968Z,45.00
2018-05-31T05:34:19.969Z,225.00
2018-05-31T05:35:20.043Z,67.50
2018-05-31T05:36:20.039Z,112.50
2018-05-31T05:37:19.968Z,90.00
2018-05-31T05:38:19.920Z,90.00
2018-05-31T05:39:20.060Z,135.00
2018-05-31T05:40:20.005Z,225.00
2018-05-31T05:41:20.080Z,270.00
2018-05-31T05:42:20.046Z,157.50
2018-05-31T05:43:20.038Z,45.00
2018-05-31T05:44:20.023Z,112.50
2018-05-31T05:45:20.066Z,292.50
2018-05-31T05:46:20.062Z,202.50
2018-05-31T05:47:20.062Z,112.50
2018-05-31T05:48:20.023Z,112.50
2018-05-31T05:49:19.973Z,90.00
2018-05-31T05:50:20.074Z,90.00
2018-05-31T05:51:20.028Z,157.50
2018-05-31T05:52:19.953Z,180.00
2018-05-31T05:53:20.025Z,157.50
2018-05-31T05:54:20.025Z,90.00
2018-05-31T05:55:19.968Z,135.00
2018-05-31T05:56:20.059Z,90.00
2018-05-31T05:57:20.089Z,135.00
2018-05-31T05:58:20.049Z,202.50
2018-05-31T05:59:20.011Z,202.50
2018-05-31T06:00:20.051Z,157.50
2018-05-31T06:01:20.080Z,45.00
2018-05-31T06:02:20.073Z,225.00
2018-05-31T06:03:20.096Z,135.00
2018-05-31T06:04:20.094Z,292.50
2018-05-31T06:05:19.959Z,135.00
2018-05-31T06:06:20.023Z,202.50
2018-05-31T06:07:20.055Z,270.00
2018-05-31T06:08:20.042Z,337.50
2018-05-31T06:09:20.085Z,247.50
2018-05-31T06:10:20.004Z,247.50
2018-05-31T06:11:19.991Z,135.00
2018-05-31T06:12:19.948Z,225.00
2018-05-31T06:13:19.961Z,135.00
2018-05-31T06:14:20.072Z,135.00
2018-05-31T06:15:19.994Z,247.50
2018-05-31T06:16:20.062Z,292.50
2018-05-31T06:17:20.000Z,292.50
2018-05-31T06:18:20.003Z,67.50
2018-05-31T06:19:20.070Z,315.00
2018-05-31T06:20:20.084Z,315.00
2018-05-31T06:21:20.102Z,292.50
2018-05-31T06:22:20.042Z,315.00
2018-05-31T06:23:19.988Z,225.00
2018-05-31T06:24:19.973Z,157.50
2018-05-31T06:25:20.107Z,225.00
2018-05-31T06:26:20.132Z,202.50
2018-05-31T06:27:20.072Z,202.50
2018-05-31T06:28:19.973Z,225.00
2018-05-31T06:29:20.079Z,225.00
2018-05-31T06:30:20.095Z,292.50
2018-05-31T06:31:19.967Z,90.00
2018-05-31T06:32:20.030Z,135.00
2018-05-31T06:33:20.011Z,45.00
2018-05-31T06:34:20.023Z,67.50
2018-05-31T06:35:20.078Z,90.00
2018-05-31T06:36:20.012Z,90.00
2018-05-31T06:37:20.083Z,157.50
2018-05-31T06:38:20.010Z,112.50
2018-05-31T06:39:20.009Z,112.50
2018-05-31T06:40:20.082Z,90.00
2018-05-31T06:41:20.018Z,202.50
2018-05-31T06:42:20.083Z,157.50
2018-05-31T06:43:20.024Z,180.00
2018-05-31T06:44:20.084Z,90.00
2018-05-31T06:45:20.013Z,67.50
2018-05-31T06:46:20.087Z,202.50
2018-05-31T06:47:20.014Z,180.00
2018-05-31T06:48:20.085Z,292.50
2018-05-31T06:49:20.085Z,225.00
2018-05-31T06:50:20.018Z,180.00
2018-05-31T06:51:20.086Z,157.50
2018-05-31T06:52:20.073Z,90.00
2018-05-31T06:53:20.064Z,157.50
2018-05-31T06:54:20.195Z,180.00
2018-05-31T06:55:20.085Z,247.50
2018-05-31T06:56:20.089Z,112.50
2018-05-31T06:57:20.154Z,45.00
2018-05-31T06:58:20.110Z,112.50
2018-05-31T06:59:20.129Z,157.50
2018-05-31T07:00:20.131Z,157.50
2018-05-31T07:01:20.119Z,180.00
2018-05-31T07:02:20.097Z,135.00
2018-05-31T07:03:20.135Z,90.00
2018-05-31T07:04:20.064Z,67.50
2018-05-31T07:05:20.020Z,112.50
2018-05-31T07:06:20.125Z,90.00
2018-05-31T07:07:20.096Z,90.00
2018-05-31T07:08:20.064Z,67.50
2018-05-31T07:09:20.063Z,135.00
2018-05-31T07:10:20.136Z,135.00
2018-05-31T07:11:20.122Z,90.00
2018-05-31T07:12:20.103Z,90.00
2018-05-31T07:13:20.159Z,90.00
2018-05-31T07:14:20.012Z,225.00
2018-05-31T07:15:20.038Z,90.00
2018-05-31T07:16:20.078Z,90.00
2018-05-31T07:17:20.102Z,135.00
2018-05-31T07:18:20.104Z,270.00
2018-05-31T07:19:20.131Z,180.00
2018-05-31T07:20:20.145Z,135.00
2018-05-31T07:21:20.113Z,202.50
2018-05-31T07:22:20.111Z,157.50
2018-05-31T07:23:20.039Z,180.00
2018-05-31T07:24:20.115Z,225.00
2018-05-31T07:25:20.112Z,270.00
2018-05-31T07:26:20.041Z,135.00
2018-05-31T07:27:20.130Z,90.00
2018-05-31T07:28:20.116Z,180.00
2018-05-31T07:29:20.044Z,135.00
2018-05-31T07:30:20.116Z,270.00
2018-05-31T07:31:20.019Z,180.00
2018-05-31T07:32:20.056Z,315.00
2018-05-31T07:33:19.986Z,157.50
2018-05-31T07:34:20.055Z,90.00
2018-05-31T07:35:20.016Z,157.50
2018-05-31T07:36:20.081Z,135.00
2018-05-31T07:37:20.011Z,180.00
2018-05-31T07:38:20.093Z,135.00
2018-05-31T07:39:20.013Z,180.00
2018-05-31T07:40:20.049Z,90.00
2018-05-31T07:41:20.056Z,67.50
2018-05-31T07:42:20.089Z,157.50
2018-05-31T07:43:20.101Z,180.00
2018-05-31T07:44:20.189Z,135.00
2018-05-31T07:45:20.153Z,157.50
2018-05-31T07:46:20.183Z,90.00
2018-05-31T07:47:20.127Z,112.50
2018-05-31T07:48:20.092Z,135.00
2018-05-31T07:49:20.096Z,112.50
2018-05-31T07:50:20.127Z,157.50
2018-05-31T07:51:20.097Z,135.00
2018-05-31T07:52:20.123Z,112.50
2018-05-31T07:53:20.070Z,135.00
2018-05-31T07:54:20.165Z,180.00
2018-05-31T07:55:20.050Z,180.00
2018-05-31T07:56:20.095Z,135.00
2018-05-31T07:57:20.151Z,157.50
2018-05-31T07:58:20.107Z,157.50
2018-05-31T07:59:20.145Z,157.50
2018-05-31T08:00:20.048Z,67.50
2018-05-31T08:01:20.155Z,292.50
2018-05-31T08:02:20.096Z,135.00
2018-05-31T08:03:20.099Z,135.00
2018-05-31T08:04:20.125Z,157.50
2018-05-31T08:05:20.017Z,135.00
2018-05-31T08:06:20.014Z,180.00
2018-05-31T08:07:20.126Z,90.00
2018-05-31T08:08:20.087Z,67.50
2018-05-31T08:09:20.019Z,180.00
2018-05-31T08:10:20.131Z,90.00
2018-05-31T08:11:20.166Z,90.00
2018-05-31T08:12:20.084Z,180.00
2018-05-31T08:13:20.171Z,202.50
2018-05-31T08:14:20.100Z,292.50
2018-05-31T08:15:20.067Z,247.50
2018-05-31T08:16:20.106Z,202.50
2018-05-31T08:17:20.099Z,225.00
2018-05-31T08:18:20.069Z,202.50
2018-05-31T08:19:20.138Z,202.50
2018-05-31T08:20:20.142Z,270.00
2018-05-31T08:21:20.086Z,270.00
2018-05-31T08:22:20.077Z,202.50
2018-05-31T08:23:20.081Z,67.50
2018-05-31T08:24:20.148Z,90.00
2018-05-31T08:25:20.151Z,90.00
2018-05-31T08:26:20.147Z,90.00
2018-05-31T08:27:20.083Z,67.50
2018-05-31T08:28:20.090Z,135.00
2018-05-31T08:29:20.086Z,202.50
2018-05-31T08:30:20.088Z,202.50
2018-05-31T08:31:20.135Z,157.50
2018-05-31T08:32:20.153Z,202.50
2018-05-31T08:33:20.092Z,225.00
2018-05-31T08:34:20.186Z,180.00
2018-05-31T08:35:20.159Z,180.00
2018-05-31T08:36:20.084Z,202.50
2018-05-31T08:37:20.158Z,112.50
2018-05-31T08:38:20.098Z,90.00
2018-05-31T08:39:20.158Z,112.50
2018-05-31T08:40:20.094Z,225.00
2018-05-31T08:41:20.158Z,135.00
2018-05-31T08:42:20.066Z,112.50
2018-05-31T08:43:20.060Z,112.50
2018-05-31T08:44:20.106Z,135.00
2018-05-31T08:45:20.016Z,112.50
2018-05-31T08:46:20.022Z,135.00
2018-05-31T08:47:20.063Z,180.00
2018-05-31T08:48:20.063Z,90.00
2018-05-31T08:49:20.113Z,112.50
2018-05-31T08:50:20.179Z,157.50
2018-05-31T08:51:20.115Z,112.50
2018-05-31T08:52:20.165Z,157.50
2018-05-31T08:53:20.186Z,90.00
2018-05-31T08:54:20.128Z,112.50
2018-05-31T08:55:20.144Z,112.50
2018-05-31T08:56:20.185Z,135.00
2018-05-31T08:57:20.159Z,157.50
2018-05-31T08:58:20.200Z,157.50
2018-05-31T08:59:20.129Z,157.50
2018-05-31T09:00:20.153Z,225.00
2018-05-31T09:01:20.075Z,202.50
2018-05-31T09:02:20.132Z,157.50
2018-05-31T09:03:20.071Z,135.00
2018-05-31T09:04:20.138Z,157.50
2018-05-31T09:05:20.150Z,157.50
2018-05-31T09:06:20.213Z,90.00
2018-05-31T09:07:20.136Z,90.00
2018-05-31T09:08:20.010Z,157.50
2018-05-31T09:09:20.146Z,135.00
2018-05-31T09:10:20.155Z,157.50
2018-05-31T09:11:20.151Z,180.00
2018-05-31T09:12:20.153Z,135.00
2018-05-31T09:13:20.176Z,90.00
2018-05-31T09:14:20.117Z,90.00
2018-05-31T09:15:20.211Z,112.50
2018-05-31T09:16:20.158Z,90.00
2018-05-31T09:17:20.214Z,135.00
2018-05-31T09:18:20.083Z,112.50
2018-05-31T09:19:20.212Z,202.50
2018-05-31T09:20:20.219Z,270.00
2018-05-31T09:21:20.091Z,180.00
2018-05-31T09:22:20.182Z,112.50
2018-05-31T09:23:20.116Z,67.50
2018-05-31T09:24:20.182Z,90.00
2018-05-31T09:25:20.173Z,112.50
2018-05-31T09:26:20.188Z,90.00
2018-05-31T09:27:20.125Z,202.50
2018-05-31T09:28:20.187Z,180.00
2018-05-31T09:29:20.126Z,135.00
2018-05-31T09:30:20.195Z,135.00
2018-05-31T09:31:20.194Z,157.50
2018-05-31T09:32:20.122Z,180.00
2018-05-31T09:33:20.197Z,135.00
2018-05-31T09:34:20.195Z,180.00
2018-05-31T09:35:20.125Z,292.50
2018-05-31T09:36:20.215Z,112.50
2018-05-31T09:37:20.197Z,157.50
2018-05-31T09:38:20.130Z,135.00
2018-05-31T09:39:20.194Z,90.00
2018-05-31T09:40:20.127Z,90.00
2018-05-31T09:41:20.132Z,90.00
2018-05-31T09:42:20.238Z,90.00
2018-05-31T09:43:20.118Z,202.50
2018-05-31T09:44:20.239Z,112.50
2018-05-31T09:45:20.236Z,90.00
2018-05-31T09:46:20.205Z,67.50
2018-05-31T09:47:20.182Z,202.50
2018-05-31T09:48:20.201Z,112.50
2018-05-31T09:49:20.228Z,90.00
2018-05-31T09:50:20.112Z,112.50
2018-05-31T09:51:20.246Z,202.50
2018-05-31T09:52:20.184Z,157.50
2018-05-31T09:53:20.146Z,90.00
2018-05-31T09:54:20.187Z,112.50
2018-05-31T09:55:20.205Z,135.00
2018-05-31T09:56:20.239Z,67.50
2018-05-31T09:57:20.210Z,112.50
2018-05-31T09:58:20.292Z,157.50
2018-05-31T09:59:20.250Z,180.00
2018-05-31T10:00:20.151Z,157.50
2018-05-31T10:01:20.119Z,225.00
2018-05-31T10:02:20.110Z,180.00
2018-05-31T10:03:20.207Z,135.00
2018-05-31T10:04:20.173Z,135.00
2018-05-31T10:05:20.115Z,90.00
2018-05-31T10:06:20.251Z,112.50
2018-05-31T10:07:20.248Z,135.00
2018-05-31T10:08:20.140Z,180.00
2018-05-31T10:09:20.192Z,157.50
2018-05-31T10:10:20.191Z,90.00
2018-05-31T10:11:20.114Z,135.00
2018-05-31T10:12:20.172Z,135.00
2018-05-31T10:13:20.138Z,225.00
2018-05-31T10:14:20.220Z,180.00
2018-05-31T10:15:20.192Z,225.00
2018-05-31T10:16:20.222Z,112.50
2018-05-31T10:17:20.192Z,90.00
2018-05-31T10:18:20.245Z,202.50
2018-05-31T10:19:20.183Z,135.00
2018-05-31T10:20:20.263Z,90.00
2018-05-31T10:21:20.241Z,225.00
2018-05-31T10:22:20.079Z,270.00
2018-05-31T10:23:20.088Z,270.00
2018-05-31T10:24:20.081Z,292.50
2018-05-31T10:25:20.132Z,270.00
2018-05-31T10:26:20.172Z,315.00
2018-05-31T10:27:20.133Z,180.00
2018-05-31T10:28:20.174Z,90.00
2018-05-31T10:29:20.175Z,135.00
2018-05-31T10:30:20.176Z,225.00
2018-05-31T10:31:20.086Z,180.00
2018-05-31T10:32:20.234Z,202.50
2018-05-31T10:33:20.169Z,270.00
2018-05-31T10:34:20.235Z,157.50
2018-05-31T10:35:20.271Z,90.00
2018-05-31T10:36:20.235Z,90.00
2018-05-31T10:37:20.168Z,90.00
2018-05-31T10:38:20.166Z,90.00
2018-05-31T10:39:20.238Z,135.00
2018-05-31T10:40:20.170Z,180.00
2018-05-31T10:41:20.168Z,180.00
2018-05-31T10:42:20.238Z,157.50
2018-05-31T10:43:20.265Z,180.00
2018-05-31T10:44:20.244Z,180.00
2018-05-31T10:45:20.240Z,135.00
2018-05-31T10:46:20.303Z,247.50
2018-05-31T10:47:20.269Z,180.00
2018-05-31T10:48:20.219Z,135.00
2018-05-31T10:49:20.150Z,270.00
2018-05-31T10:50:20.268Z,247.50
2018-05-31T10:51:20.212Z,180.00
2018-05-31T10:52:20.205Z,135.00
2018-05-31T10:53:20.224Z,157.50
2018-05-31T10:54:20.246Z,135.00
2018-05-31T10:55:20.248Z,112.50
2018-05-31T10:56:20.219Z,90.00
2018-05-31T10:57:20.214Z,67.50
2018-05-31T10:58:20.171Z,247.50
2018-05-31T10:59:20.349Z,270.00
2018-05-31T11:00:20.272Z,180.00
2018-05-31T11:01:20.221Z,90.00
2018-05-31T11:02:20.184Z,112.50
2018-05-31T11:03:20.255Z,90.00
2018-05-31T11:04:20.187Z,135.00
2018-05-31T11:05:20.258Z,112.50
2018-05-31T11:06:20.242Z,202.50
2018-05-31T11:07:20.259Z,112.50
2018-05-31T11:08:20.191Z,135.00
2018-05-31T11:09:20.192Z,157.50
2018-05-31T11:10:20.261Z,157.50
2018-05-31T11:11:20.260Z,180.00
2018-05-31T11:12:20.155Z,135.00
2018-05-31T11:13:20.276Z,157.50
2018-05-31T11:14:20.223Z,67.50
2018-05-31T11:15:20.285Z,90.00
2018-05-31T11:16:20.225Z,90.00
2018-05-31T11:17:20.164Z,90.00
2018-05-31T11:18:20.260Z,180.00
2018-05-31T11:19:20.223Z,90.00
2018-05-31T11:20:20.220Z,135.00
2018-05-31T11:21:20.260Z,225.00
2018-05-31T11:22:20.199Z,180.00
2018-05-31T11:23:20.264Z,157.50
2018-05-31T11:24:20.267Z,202.50
2018-05-31T11:25:20.271Z,202.50
2018-05-31T11:26:20.304Z,247.50
2018-05-31T11:27:20.200Z,202.50
2018-05-31T11:28:20.280Z,180.00
2018-05-31T11:29:20.305Z,157.50
2018-05-31T11:30:20.204Z,157.50
2018-05-31T11:31:20.274Z,112.50
2018-05-31T11:32:20.215Z,90.00
2018-05-31T11:33:20.239Z,90.00
2018-05-31T11:34:20.253Z,135.00
2018-05-31T11:35:20.182Z,157.50
2018-05-31T11:36:20.250Z,180.00
2018-05-31T11:37:20.295Z,112.50
2018-05-31T11:38:20.237Z,157.50
2018-05-31T11:39:20.313Z,135.00
2018-05-31T11:40:20.248Z,157.50
2018-05-31T11:41:20.278Z,112.50
2018-05-31T11:42:20.223Z,112.50
2018-05-31T11:43:20.225Z,157.50
2018-05-31T11:44:20.134Z,157.50
2018-05-31T11:45:20.136Z,180.00
2018-05-31T11:46:20.228Z,157.50
2018-05-31T11:47:20.228Z,135.00
2018-05-31T11:48:20.136Z,157.50
2018-05-31T11:49:20.141Z,135.00
2018-05-31T11:50:20.180Z,135.00
2018-05-31T11:51:20.143Z,180.00
2018-05-31T11:52:20.172Z,202.50
2018-05-31T11:53:20.280Z,112.50
2018-05-31T11:54:20.163Z,90.00
2018-05-31T11:55:20.187Z,135.00
2018-05-31T11:56:20.308Z,180.00
2018-05-31T11:57:20.196Z,180.00
2018-05-31T11:58:20.195Z,157.50
2018-05-31T11:59:20.231Z,247.50
2018-05-31T12:00:20.273Z,157.50
2018-05-31T12:01:20.296Z,292.50
2018-05-31T12:02:20.292Z,337.50
2018-05-31T12:03:20.292Z,247.50
2018-05-31T12:04:20.293Z,292.50
2018-05-31T12:05:20.226Z,315.00
2018-05-31T12:06:20.229Z,247.50
2018-05-31T12:07:20.228Z,270.00
2018-05-31T12:08:20.257Z,247.50
2018-05-31T12:09:20.314Z,270.00
2018-05-31T12:10:20.229Z,292.50
2018-05-31T12:11:20.201Z,270.00
2018-05-31T12:12:20.286Z,225.00
2018-05-31T12:13:20.165Z,157.50
2018-05-31T12:14:20.202Z,202.50
2018-05-31T12:15:20.167Z,202.50
2018-05-31T12:16:20.207Z,90.00
2018-05-31T12:17:20.268Z,90.00
2018-05-31T12:18:20.306Z,112.50
2018-05-31T12:19:20.291Z,112.50
2018-05-31T12:20:20.293Z,90.00
2018-05-31T12:21:20.288Z,90.00
2018-05-31T12:22:20.329Z,202.50
2018-05-31T12:23:20.302Z,247.50
2018-05-31T12:24:20.215Z,202.50
2018-05-31T12:25:20.299Z,247.50
2018-05-31T12:26:20.338Z,202.50
2018-05-31T12:27:20.343Z,202.50
2018-05-31T12:28:20.275Z,202.50
2018-05-31T12:29:20.269Z,202.50
2018-05-31T12:30:20.337Z,157.50
2018-05-31T12:31:20.337Z,180.00
2018-05-31T12:32:20.271Z,270.00
2018-05-31T12:33:20.203Z,202.50
2018-05-31T12:34:20.185Z,112.50
2018-05-31T12:35:20.269Z,180.00
2018-05-31T12:36:20.247Z,225.00
2018-05-31T12:37:20.303Z,157.50
2018-05-31T12:38:20.274Z,202.50